sensor_id;sensor_type;location;lat;lon;timestamp;P1;durP1;ratioP1;P2;durP2;ratioP2
18425;SDS011;9340;48.756;9.226;2023-02-01T00:02:11;5.47;;;3.83;;
18425;SDS011;9340;48.756;9.226;2023-02-01T00:04:37;4.43;;;3.70;;
18425;SDS011;9340;48.756;9.226;2023-02-01T00:07:04;4.87;;;3.87;;
18425;SDS011;9340;48.756;9.226;2023-02-01T00:09:31;8.53;;;4.10;;
18425;SDS011;9340;48.756;9.226;2023-02-01T00:11:58;3.90;;;3.50;;
18425;SDS011;9340;48.756;9.226;2023-02-01T00:14:28;4.87;;;3.67;;
18425;SDS011;9340;48.756;9.226;2023-02-01T00:16:55;4.33;;;3.67;;
18425;SDS011;9340;48.756;9.226;2023-02-01T00:19:22;4.83;;;3.53;;
18425;SDS011;9340;48.756;9.226;2023-02-01T00:21:48;3.87;;;3.47;;
18425;SDS011;9340;48.756;9.226;2023-02-01T00:24:15;3.93;;;3.53;;
18425;SDS011;9340;48.756;9.226;2023-02-01T00:26:42;3.70;;;3.00;;
18425;SDS011;9340;48.756;9.226;2023-02-01T00:29:11;3.93;;;3.30;;
18425;SDS011;9340;48.756;9.226;2023-02-01T00:31:42;3.77;;;3.00;;
18425;SDS011;9340;48.756;9.226;2023-02-01T00:34:09;5.33;;;3.60;;
18425;SDS011;9340;48.756;9.226;2023-02-01T00:36:39;4.43;;;3.63;;
18425;SDS011;9340;48.756;9.226;2023-02-01T00:39:06;3.67;;;3.30;;
18425;SDS011;9340;48.756;9.226;2023-02-01T00:41:32;3.27;;;2.97;;
18425;SDS011;9340;48.756;9.226;2023-02-01T00:43:59;3.40;;;3.10;;
18425;SDS011;9340;48.756;9.226;2023-02-01T00:46:26;4.40;;;3.07;;
18425;SDS011;9340;48.756;9.226;2023-02-01T00:48:54;3.87;;;3.37;;
18425;SDS011;9340;48.756;9.226;2023-02-01T00:51:23;3.20;;;2.87;;
18425;SDS011;9340;48.756;9.226;2023-02-01T00:53:51;3.60;;;3.17;;
18425;SDS011;9340;48.756;9.226;2023-02-01T00:56:18;3.13;;;2.93;;
18425;SDS011;9340;48.756;9.226;2023-02-01T00:58:45;3.10;;;2.80;;
18425;SDS011;9340;48.756;9.226;2023-02-01T01:01:13;3.00;;;2.70;;
18425;SDS011;9340;48.756;9.226;2023-02-01T01:03:42;2.90;;;2.60;;
18425;SDS011;9340;48.756;9.226;2023-02-01T01:06:13;3.83;;;2.60;;
18425;SDS011;9340;48.756;9.226;2023-02-01T01:08:40;3.33;;;2.70;;
18425;SDS011;9340;48.756;9.226;2023-02-01T01:11:08;3.03;;;2.40;;
18425;SDS011;9340;48.756;9.226;2023-02-01T01:13:37;3.50;;;3.00;;
18425;SDS011;9340;48.756;9.226;2023-02-01T01:16:05;3.10;;;2.57;;
18425;SDS011;9340;48.756;9.226;2023-02-01T01:18:33;2.63;;;2.37;;
18425;SDS011;9340;48.756;9.226;2023-02-01T01:21:00;3.70;;;2.67;;
18425;SDS011;9340;48.756;9.226;2023-02-01T01:23:30;3.23;;;2.60;;
18425;SDS011;9340;48.756;9.226;2023-02-01T01:25:58;3.37;;;2.40;;
18425;SDS011;9340;48.756;9.226;2023-02-01T01:28:25;3.30;;;3.00;;
18425;SDS011;9340;48.756;9.226;2023-02-01T01:30:52;2.50;;;2.17;;
18425;SDS011;9340;48.756;9.226;2023-02-01T01:33:18;2.37;;;2.10;;
18425;SDS011;9340;48.756;9.226;2023-02-01T01:35:45;3.20;;;2.73;;
18425;SDS011;9340;48.756;9.226;2023-02-01T01:38:12;2.40;;;2.20;;
18425;SDS011;9340;48.756;9.226;2023-02-01T01:40:40;3.53;;;2.50;;
18425;SDS011;9340;48.756;9.226;2023-02-01T01:43:12;3.53;;;2.30;;
18425;SDS011;9340;48.756;9.226;2023-02-01T01:45:40;2.47;;;2.20;;
18425;SDS011;9340;48.756;9.226;2023-02-01T01:48:08;3.83;;;2.20;;
18425;SDS011;9340;48.756;9.226;2023-02-01T01:50:41;2.37;;;2.17;;
18425;SDS011;9340;48.756;9.226;2023-02-01T01:53:13;3.30;;;2.80;;
18425;SDS011;9340;48.756;9.226;2023-02-01T01:55:47;2.33;;;2.10;;
18425;SDS011;9340;48.756;9.226;2023-02-01T01:58:16;4.27;;;2.43;;
18425;SDS011;9340;48.756;9.226;2023-02-01T02:00:45;2.93;;;2.60;;
18425;SDS011;9340;48.756;9.226;2023-02-01T02:03:14;2.40;;;2.20;;
18425;SDS011;9340;48.756;9.226;2023-02-01T02:05:44;2.63;;;2.27;;
18425;SDS011;9340;48.756;9.226;2023-02-01T02:08:12;3.80;;;2.27;;
18425;SDS011;9340;48.756;9.226;2023-02-01T02:10:39;2.80;;;2.60;;
18425;SDS011;9340;48.756;9.226;2023-02-01T02:13:24;2.97;;;2.53;;
18425;SDS011;9340;48.756;9.226;2023-02-01T02:18:44;2.23;;;2.03;;
18425;SDS011;9340;48.756;9.226;2023-02-01T02:21:23;2.30;;;2.10;;
18425;SDS011;9340;48.756;9.226;2023-02-01T02:27:18;2.53;;;2.30;;
18425;SDS011;9340;48.756;9.226;2023-02-01T02:30:00;3.20;;;2.27;;
18425;SDS011;9340;48.756;9.226;2023-02-01T02:35:55;1.97;;;1.87;;
18425;SDS011;9340;48.756;9.226;2023-02-01T02:38:28;2.40;;;2.20;;
18425;SDS011;9340;48.756;9.226;2023-02-01T02:41:02;2.50;;;2.17;;
18425;SDS011;9340;48.756;9.226;2023-02-01T02:43:35;2.67;;;2.47;;
18425;SDS011;9340;48.756;9.226;2023-02-01T02:46:28;2.47;;;2.20;;
18425;SDS011;9340;48.756;9.226;2023-02-01T02:49:20;2.33;;;2.13;;
18425;SDS011;9340;48.756;9.226;2023-02-01T02:51:56;2.70;;;2.40;;
18425;SDS011;9340;48.756;9.226;2023-02-01T02:54:46;2.60;;;2.40;;
18425;SDS011;9340;48.756;9.226;2023-02-01T02:57:18;2.77;;;2.27;;
18425;SDS011;9340;48.756;9.226;2023-02-01T03:00:05;2.70;;;2.20;;
18425;SDS011;9340;48.756;9.226;2023-02-01T03:02:54;2.40;;;2.20;;
18425;SDS011;9340;48.756;9.226;2023-02-01T03:05:40;2.83;;;2.53;;
18425;SDS011;9340;48.756;9.226;2023-02-01T03:08:11;3.17;;;2.70;;
18425;SDS011;9340;48.756;9.226;2023-02-01T03:10:42;4.97;;;2.53;;
18425;SDS011;9340;48.756;9.226;2023-02-01T03:13:19;3.10;;;2.80;;
18425;SDS011;9340;48.756;9.226;2023-02-01T03:15:52;2.70;;;2.50;;
18425;SDS011;9340;48.756;9.226;2023-02-01T03:18:26;4.83;;;3.70;;
18425;SDS011;9340;48.756;9.226;2023-02-01T03:20:58;2.77;;;2.57;;
18425;SDS011;9340;48.756;9.226;2023-02-01T03:23:31;3.80;;;2.30;;
18425;SDS011;9340;48.756;9.226;2023-02-01T03:26:02;2.50;;;2.30;;
18425;SDS011;9340;48.756;9.226;2023-02-01T03:28:32;3.10;;;2.80;;
18425;SDS011;9340;48.756;9.226;2023-02-01T03:31:00;2.87;;;2.60;;
18425;SDS011;9340;48.756;9.226;2023-02-01T03:33:28;3.23;;;2.80;;
18425;SDS011;9340;48.756;9.226;2023-02-01T03:35:59;2.97;;;2.67;;
18425;SDS011;9340;48.756;9.226;2023-02-01T03:38:33;3.30;;;3.00;;
18425;SDS011;9340;48.756;9.226;2023-02-01T03:41:08;3.37;;;2.87;;
18425;SDS011;9340;48.756;9.226;2023-02-01T03:43:46;3.23;;;2.93;;
18425;SDS011;9340;48.756;9.226;2023-02-01T03:46:23;3.37;;;2.80;;
18425;SDS011;9340;48.756;9.226;2023-02-01T03:48:57;2.73;;;2.53;;
18425;SDS011;9340;48.756;9.226;2023-02-01T03:51:27;2.60;;;2.40;;
18425;SDS011;9340;48.756;9.226;2023-02-01T03:53:58;3.50;;;2.63;;
18425;SDS011;9340;48.756;9.226;2023-02-01T03:56:28;3.43;;;2.60;;
18425;SDS011;9340;48.756;9.226;2023-02-01T03:58:57;2.80;;;2.60;;
18425;SDS011;9340;48.756;9.226;2023-02-01T04:01:25;2.67;;;2.47;;
18425;SDS011;9340;48.756;9.226;2023-02-01T04:03:54;4.47;;;2.77;;
18425;SDS011;9340;48.756;9.226;2023-02-01T04:06:21;2.70;;;2.50;;
18425;SDS011;9340;48.756;9.226;2023-02-01T04:08:48;3.10;;;2.63;;
18425;SDS011;9340;48.756;9.226;2023-02-01T04:11:18;2.87;;;2.43;;
18425;SDS011;9340;48.756;9.226;2023-02-01T04:13:46;2.67;;;2.47;;
18425;SDS011;9340;48.756;9.226;2023-02-01T04:16:13;3.00;;;2.73;;
18425;SDS011;9340;48.756;9.226;2023-02-01T04:18:41;2.50;;;2.30;;
18425;SDS011;9340;48.756;9.226;2023-02-01T04:21:07;2.70;;;2.50;;
18425;SDS011;9340;48.756;9.226;2023-02-01T04:23:35;4.10;;;2.67;;
18425;SDS011;9340;48.756;9.226;2023-02-01T04:26:03;3.43;;;2.77;;
18425;SDS011;9340;48.756;9.226;2023-02-01T04:28:32;3.67;;;2.53;;
18425;SDS011;9340;48.756;9.226;2023-02-01T04:30:59;2.67;;;2.43;;
18425;SDS011;9340;48.756;9.226;2023-02-01T04:33:26;2.53;;;2.33;;
18425;SDS011;9340;48.756;9.226;2023-02-01T04:35:53;3.53;;;2.60;;
18425;SDS011;9340;48.756;9.226;2023-02-01T04:38:21;3.00;;;2.70;;
18425;SDS011;9340;48.756;9.226;2023-02-01T04:40:49;2.87;;;2.57;;
18425;SDS011;9340;48.756;9.226;2023-02-01T04:43:16;2.57;;;2.37;;
18425;SDS011;9340;48.756;9.226;2023-02-01T04:45:47;3.43;;;2.77;;
18425;SDS011;9340;48.756;9.226;2023-02-01T04:48:15;2.80;;;2.57;;
18425;SDS011;9340;48.756;9.226;2023-02-01T04:50:43;3.10;;;2.43;;
18425;SDS011;9340;48.756;9.226;2023-02-01T04:53:12;3.10;;;2.73;;
18425;SDS011;9340;48.756;9.226;2023-02-01T04:55:39;3.23;;;2.87;;
18425;SDS011;9340;48.756;9.226;2023-02-01T04:58:07;3.07;;;2.80;;
18425;SDS011;9340;48.756;9.226;2023-02-01T05:00:35;2.90;;;2.60;;
18425;SDS011;9340;48.756;9.226;2023-02-01T05:03:04;2.73;;;2.50;;
18425;SDS011;9340;48.756;9.226;2023-02-01T05:05:31;3.43;;;2.57;;
18425;SDS011;9340;48.756;9.226;2023-02-01T05:07:59;2.77;;;2.57;;
18425;SDS011;9340;48.756;9.226;2023-02-01T05:10:26;2.53;;;2.33;;
18425;SDS011;9340;48.756;9.226;2023-02-01T05:12:53;3.83;;;2.73;;
18425;SDS011;9340;48.756;9.226;2023-02-01T05:15:38;2.40;;;2.07;;
18425;SDS011;9340;48.756;9.226;2023-02-01T05:18:07;3.00;;;2.70;;
18425;SDS011;9340;48.756;9.226;2023-02-01T05:20:35;3.10;;;2.80;;
18425;SDS011;9340;48.756;9.226;2023-02-01T05:23:02;3.80;;;2.60;;
18425;SDS011;9340;48.756;9.226;2023-02-01T05:25:29;2.50;;;2.30;;
18425;SDS011;9340;48.756;9.226;2023-02-01T05:27:56;2.77;;;2.57;;
18425;SDS011;9340;48.756;9.226;2023-02-01T05:30:24;6.53;;;2.60;;
18425;SDS011;9340;48.756;9.226;2023-02-01T05:32:52;3.27;;;2.60;;
18425;SDS011;9340;48.756;9.226;2023-02-01T05:35:21;2.67;;;2.47;;
18425;SDS011;9340;48.756;9.226;2023-02-01T05:37:47;2.47;;;2.27;;
18425;SDS011;9340;48.756;9.226;2023-02-01T05:40:15;2.43;;;2.23;;
18425;SDS011;9340;48.756;9.226;2023-02-01T05:42:43;2.57;;;2.30;;
18425;SDS011;9340;48.756;9.226;2023-02-01T05:45:11;2.33;;;2.13;;
18425;SDS011;9340;48.756;9.226;2023-02-01T05:47:38;2.10;;;1.90;;
18425;SDS011;9340;48.756;9.226;2023-02-01T05:50:05;2.80;;;2.57;;
18425;SDS011;9340;48.756;9.226;2023-02-01T05:52:35;2.93;;;2.00;;
18425;SDS011;9340;48.756;9.226;2023-02-01T05:55:03;4.07;;;2.20;;
18425;SDS011;9340;48.756;9.226;2023-02-01T05:57:31;2.13;;;1.93;;
18425;SDS011;9340;48.756;9.226;2023-02-01T05:59:58;2.80;;;2.53;;
18425;SDS011;9340;48.756;9.226;2023-02-01T06:02:26;2.63;;;2.43;;
18425;SDS011;9340;48.756;9.226;2023-02-01T06:04:56;2.60;;;2.40;;
18425;SDS011;9340;48.756;9.226;2023-02-01T06:07:23;2.77;;;2.30;;
18425;SDS011;9340;48.756;9.226;2023-02-01T06:09:53;2.70;;;2.20;;
18425;SDS011;9340;48.756;9.226;2023-02-01T06:12:20;2.97;;;2.40;;
18425;SDS011;9340;48.756;9.226;2023-02-01T06:14:47;4.20;;;2.30;;
18425;SDS011;9340;48.756;9.226;2023-02-01T06:17:14;2.23;;;2.03;;
18425;SDS011;9340;48.756;9.226;2023-02-01T06:19:41;2.57;;;2.37;;
18425;SDS011;9340;48.756;9.226;2023-02-01T06:22:09;3.17;;;2.20;;
18425;SDS011;9340;48.756;9.226;2023-02-01T06:24:36;2.40;;;2.20;;
18425;SDS011;9340;48.756;9.226;2023-02-01T06:27:04;2.60;;;2.40;;
18425;SDS011;9340;48.756;9.226;2023-02-01T06:29:32;2.50;;;2.30;;
18425;SDS011;9340;48.756;9.226;2023-02-01T06:32:00;3.90;;;2.40;;
18425;SDS011;9340;48.756;9.226;2023-02-01T06:34:28;6.20;;;2.20;;
18425;SDS011;9340;48.756;9.226;2023-02-01T06:36:55;2.80;;;2.60;;
18425;SDS011;9340;48.756;9.226;2023-02-01T06:39:22;2.27;;;2.07;;
18425;SDS011;9340;48.756;9.226;2023-02-01T06:41:49;2.70;;;2.20;;
18425;SDS011;9340;48.756;9.226;2023-02-01T06:44:19;2.53;;;2.33;;
18425;SDS011;9340;48.756;9.226;2023-02-01T06:46:47;3.20;;;2.53;;
18425;SDS011;9340;48.756;9.226;2023-02-01T06:49:14;3.50;;;2.50;;
18425;SDS011;9340;48.756;9.226;2023-02-01T06:51:41;4.03;;;2.70;;
18425;SDS011;9340;48.756;9.226;2023-02-01T06:54:08;2.80;;;2.27;;
18425;SDS011;9340;48.756;9.226;2023-02-01T06:56:35;4.07;;;2.20;;
18425;SDS011;9340;48.756;9.226;2023-02-01T06:59:03;2.50;;;2.30;;
18425;SDS011;9340;48.756;9.226;2023-02-01T07:01:32;3.30;;;2.30;;
18425;SDS011;9340;48.756;9.226;2023-02-01T07:04:00;2.40;;;2.20;;
18425;SDS011;9340;48.756;9.226;2023-02-01T07:06:28;2.13;;;1.93;;
18425;SDS011;9340;48.756;9.226;2023-02-01T07:08:56;2.90;;;2.30;;
18425;SDS011;9340;48.756;9.226;2023-02-01T07:11:25;2.77;;;2.30;;
18425;SDS011;9340;48.756;9.226;2023-02-01T07:13:53;4.07;;;2.30;;
18425;SDS011;9340;48.756;9.226;2023-02-01T07:16:20;2.67;;;2.23;;
18425;SDS011;9340;48.756;9.226;2023-02-01T07:18:50;2.37;;;2.17;;
18425;SDS011;9340;48.756;9.226;2023-02-01T07:21:18;2.60;;;2.40;;
18425;SDS011;9340;48.756;9.226;2023-02-01T07:23:46;2.30;;;2.10;;
18425;SDS011;9340;48.756;9.226;2023-02-01T07:26:14;2.40;;;2.20;;
18425;SDS011;9340;48.756;9.226;2023-02-01T07:28:43;4.83;;;2.47;;
18425;SDS011;9340;48.756;9.226;2023-02-01T07:31:11;2.53;;;2.33;;
18425;SDS011;9340;48.756;9.226;2023-02-01T07:33:41;2.90;;;2.37;;
18425;SDS011;9340;48.756;9.226;2023-02-01T07:36:12;2.07;;;1.80;;
18425;SDS011;9340;48.756;9.226;2023-02-01T07:38:41;2.23;;;2.03;;
18425;SDS011;9340;48.756;9.226;2023-02-01T07:41:08;4.23;;;2.30;;
18425;SDS011;9340;48.756;9.226;2023-02-01T07:43:36;3.10;;;2.20;;
18425;SDS011;9340;48.756;9.226;2023-02-01T07:46:03;6.20;;;3.37;;
18425;SDS011;9340;48.756;9.226;2023-02-01T07:48:31;2.53;;;2.33;;
18425;SDS011;9340;48.756;9.226;2023-02-01T07:50:59;2.33;;;2.00;;
18425;SDS011;9340;48.756;9.226;2023-02-01T07:53:29;2.60;;;2.00;;
18425;SDS011;9340;48.756;9.226;2023-02-01T07:55:58;2.77;;;1.93;;
18425;SDS011;9340;48.756;9.226;2023-02-01T07:58:25;2.97;;;2.20;;
18425;SDS011;9340;48.756;9.226;2023-02-01T08:00:53;2.83;;;2.23;;
18425;SDS011;9340;48.756;9.226;2023-02-01T08:03:37;3.23;;;2.17;;
18425;SDS011;9340;48.756;9.226;2023-02-01T08:06:04;2.90;;;2.60;;
18425;SDS011;9340;48.756;9.226;2023-02-01T08:08:34;4.10;;;2.40;;
18425;SDS011;9340;48.756;9.226;2023-02-01T08:11:02;2.57;;;2.10;;
18425;SDS011;9340;48.756;9.226;2023-02-01T08:13:30;4.30;;;2.90;;
18425;SDS011;9340;48.756;9.226;2023-02-01T08:15:59;4.93;;;2.60;;
18425;SDS011;9340;48.756;9.226;2023-02-01T08:18:26;2.67;;;2.47;;
18425;SDS011;9340;48.756;9.226;2023-02-01T08:20:54;3.97;;;2.20;;
18425;SDS011;9340;48.756;9.226;2023-02-01T08:23:21;3.03;;;2.40;;
18425;SDS011;9340;48.756;9.226;2023-02-01T08:25:50;2.60;;;1.80;;
18425;SDS011;9340;48.756;9.226;2023-02-01T08:28:17;2.30;;;2.00;;
18425;SDS011;9340;48.756;9.226;2023-02-01T08:30:46;2.67;;;2.20;;
18425;SDS011;9340;48.756;9.226;2023-02-01T08:33:14;2.23;;;1.83;;
18425;SDS011;9340;48.756;9.226;2023-02-01T08:35:41;3.53;;;2.40;;
18425;SDS011;9340;48.756;9.226;2023-02-01T08:38:08;3.87;;;2.10;;
18425;SDS011;9340;48.756;9.226;2023-02-01T08:40:35;2.60;;;2.27;;
18425;SDS011;9340;48.756;9.226;2023-02-01T08:43:04;2.77;;;2.53;;
18425;SDS011;9340;48.756;9.226;2023-02-01T08:45:31;4.27;;;2.23;;
18425;SDS011;9340;48.756;9.226;2023-02-01T08:47:59;2.60;;;2.13;;
18425;SDS011;9340;48.756;9.226;2023-02-01T08:50:26;3.10;;;2.13;;
18425;SDS011;9340;48.756;9.226;2023-02-01T08:52:53;2.40;;;2.10;;
18425;SDS011;9340;48.756;9.226;2023-02-01T08:55:20;3.37;;;2.50;;
18425;SDS011;9340;48.756;9.226;2023-02-01T08:57:47;4.07;;;2.50;;
18425;SDS011;9340;48.756;9.226;2023-02-01T09:00:16;4.30;;;2.87;;
18425;SDS011;9340;48.756;9.226;2023-02-01T09:02:43;3.50;;;2.87;;
18425;SDS011;9340;48.756;9.226;2023-02-01T09:05:11;4.17;;;2.90;;
18425;SDS011;9340;48.756;9.226;2023-02-01T09:07:41;4.20;;;2.37;;
18425;SDS011;9340;48.756;9.226;2023-02-01T09:10:09;3.40;;;2.37;;
18425;SDS011;9340;48.756;9.226;2023-02-01T09:12:38;3.70;;;2.47;;
18425;SDS011;9340;48.756;9.226;2023-02-01T09:15:05;3.73;;;2.60;;
18425;SDS011;9340;48.756;9.226;2023-02-01T09:17:34;7.30;;;3.47;;
18425;SDS011;9340;48.756;9.226;2023-02-01T09:20:02;4.17;;;2.53;;
18425;SDS011;9340;48.756;9.226;2023-02-01T09:22:29;4.90;;;3.00;;
18425;SDS011;9340;48.756;9.226;2023-02-01T09:24:56;4.27;;;3.47;;
18425;SDS011;9340;48.756;9.226;2023-02-01T09:27:23;3.90;;;3.00;;
18425;SDS011;9340;48.756;9.226;2023-02-01T09:29:51;4.27;;;2.50;;
18425;SDS011;9340;48.756;9.226;2023-02-01T09:32:19;3.10;;;2.43;;
18425;SDS011;9340;48.756;9.226;2023-02-01T09:34:50;3.47;;;2.30;;
18425;SDS011;9340;48.756;9.226;2023-02-01T09:37:17;3.90;;;2.40;;
18425;SDS011;9340;48.756;9.226;2023-02-01T09:39:45;5.37;;;2.43;;
18425;SDS011;9340;48.756;9.226;2023-02-01T09:42:16;4.47;;;2.40;;
18425;SDS011;9340;48.756;9.226;2023-02-01T09:45:06;3.67;;;2.80;;
18425;SDS011;9340;48.756;9.226;2023-02-01T09:47:42;4.43;;;2.30;;
18425;SDS011;9340;48.756;9.226;2023-02-01T09:50:18;4.47;;;2.27;;
18425;SDS011;9340;48.756;9.226;2023-02-01T09:52:50;4.27;;;2.70;;
18425;SDS011;9340;48.756;9.226;2023-02-01T09:55:24;5.80;;;2.60;;
18425;SDS011;9340;48.756;9.226;2023-02-01T09:58:00;6.70;;;2.90;;
18425;SDS011;9340;48.756;9.226;2023-02-01T10:00:33;4.73;;;2.97;;
18425;SDS011;9340;48.756;9.226;2023-02-01T10:03:05;5.60;;;2.47;;
18425;SDS011;9340;48.756;9.226;2023-02-01T10:05:53;5.50;;;2.43;;
18425;SDS011;9340;48.756;9.226;2023-02-01T10:08:32;4.63;;;2.83;;
18425;SDS011;9340;48.756;9.226;2023-02-01T10:11:07;6.60;;;2.90;;
18425;SDS011;9340;48.756;9.226;2023-02-01T10:13:49;6.97;;;2.87;;
18425;SDS011;9340;48.756;9.226;2023-02-01T10:16:27;8.20;;;2.97;;
18425;SDS011;9340;48.756;9.226;2023-02-01T10:19:17;4.23;;;2.40;;
18425;SDS011;9340;48.756;9.226;2023-02-01T10:21:56;7.13;;;2.80;;
18425;SDS011;9340;48.756;9.226;2023-02-01T10:24:34;6.03;;;2.90;;
18425;SDS011;9340;48.756;9.226;2023-02-01T10:27:11;7.50;;;2.93;;
18425;SDS011;9340;48.756;9.226;2023-02-01T10:29:41;7.77;;;2.60;;
18425;SDS011;9340;48.756;9.226;2023-02-01T10:32:13;9.90;;;3.73;;
18425;SDS011;9340;48.756;9.226;2023-02-01T10:34:42;7.17;;;2.97;;
18425;SDS011;9340;48.756;9.226;2023-02-01T10:37:26;5.53;;;2.70;;
18425;SDS011;9340;48.756;9.226;2023-02-01T10:39:56;6.20;;;2.70;;
18425;SDS011;9340;48.756;9.226;2023-02-01T10:42:26;8.53;;;2.77;;
18425;SDS011;9340;48.756;9.226;2023-02-01T10:44:57;7.23;;;2.77;;
18425;SDS011;9340;48.756;9.226;2023-02-01T10:47:28;6.57;;;2.33;;
18425;SDS011;9340;48.756;9.226;2023-02-01T10:49:57;6.50;;;2.47;;
18425;SDS011;9340;48.756;9.226;2023-02-01T10:52:36;10.23;;;3.63;;
18425;SDS011;9340;48.756;9.226;2023-02-01T10:58:15;7.37;;;4.13;;
18425;SDS011;9340;48.756;9.226;2023-02-01T11:00:47;8.97;;;3.97;;
18425;SDS011;9340;48.756;9.226;2023-02-01T11:03:34;5.93;;;2.80;;
18425;SDS011;9340;48.756;9.226;2023-02-01T11:06:09;7.67;;;4.20;;
18425;SDS011;9340;48.756;9.226;2023-02-01T11:08:47;12.47;;;3.63;;
18425;SDS011;9340;48.756;9.226;2023-02-01T11:11:15;7.53;;;3.33;;
18425;SDS011;9340;48.756;9.226;2023-02-01T11:13:43;6.00;;;2.80;;
18425;SDS011;9340;48.756;9.226;2023-02-01T11:16:11;8.80;;;3.20;;
18425;SDS011;9340;48.756;9.226;2023-02-01T11:18:40;7.93;;;4.13;;
18425;SDS011;9340;48.756;9.226;2023-02-01T11:21:09;8.77;;;3.57;;
18425;SDS011;9340;48.756;9.226;2023-02-01T11:23:41;7.33;;;3.93;;
18425;SDS011;9340;48.756;9.226;2023-02-01T11:26:12;5.90;;;3.00;;
18425;SDS011;9340;48.756;9.226;2023-02-01T11:28:45;6.37;;;3.20;;
18425;SDS011;9340;48.756;9.226;2023-02-01T11:31:17;7.43;;;4.00;;
18425;SDS011;9340;48.756;9.226;2023-02-01T11:33:47;4.83;;;2.87;;
18425;SDS011;9340;48.756;9.226;2023-02-01T11:36:20;7.53;;;2.93;;
18425;SDS011;9340;48.756;9.226;2023-02-01T11:38:51;7.50;;;3.90;;
18425;SDS011;9340;48.756;9.226;2023-02-01T11:41:23;12.83;;;3.70;;
18425;SDS011;9340;48.756;9.226;2023-02-01T11:43:52;8.47;;;2.70;;
18425;SDS011;9340;48.756;9.226;2023-02-01T11:46:23;6.13;;;2.97;;
18425;SDS011;9340;48.756;9.226;2023-02-01T11:48:53;8.67;;;3.17;;
18425;SDS011;9340;48.756;9.226;2023-02-01T11:51:26;8.43;;;3.03;;
18425;SDS011;9340;48.756;9.226;2023-02-01T11:54:07;7.63;;;2.87;;
18425;SDS011;9340;48.756;9.226;2023-02-01T11:56:45;5.90;;;2.43;;
18425;SDS011;9340;48.756;9.226;2023-02-01T11:59:25;9.63;;;2.93;;
18425;SDS011;9340;48.756;9.226;2023-02-01T12:02:08;7.63;;;2.40;;
18425;SDS011;9340;48.756;9.226;2023-02-01T12:04:59;7.00;;;2.73;;
18425;SDS011;9340;48.756;9.226;2023-02-01T12:07:39;7.40;;;2.63;;
18425;SDS011;9340;48.756;9.226;2023-02-01T12:10:21;7.83;;;2.43;;
18425;SDS011;9340;48.756;9.226;2023-02-01T12:13:05;6.23;;;3.43;;
18425;SDS011;9340;48.756;9.226;2023-02-01T12:15:43;6.37;;;2.47;;
18425;SDS011;9340;48.756;9.226;2023-02-01T12:18:32;5.77;;;3.20;;
18425;SDS011;9340;48.756;9.226;2023-02-01T12:21:17;5.30;;;2.23;;
18425;SDS011;9340;48.756;9.226;2023-02-01T12:23:59;6.90;;;2.77;;
18425;SDS011;9340;48.756;9.226;2023-02-01T12:26:45;7.47;;;3.43;;
18425;SDS011;9340;48.756;9.226;2023-02-01T12:29:47;11.20;;;4.03;;
18425;SDS011;9340;48.756;9.226;2023-02-01T12:32:29;5.00;;;3.87;;
18425;SDS011;9340;48.756;9.226;2023-02-01T12:38:03;8.03;;;3.13;;
18425;SDS011;9340;48.756;9.226;2023-02-01T12:40:48;5.93;;;2.53;;
18425;SDS011;9340;48.756;9.226;2023-02-01T12:43:34;7.17;;;3.00;;
18425;SDS011;9340;48.756;9.226;2023-02-01T12:46:10;7.23;;;3.10;;
18425;SDS011;9340;48.756;9.226;2023-02-01T12:48:47;9.50;;;3.00;;
18425;SDS011;9340;48.756;9.226;2023-02-01T12:51:22;7.37;;;2.60;;
18425;SDS011;9340;48.756;9.226;2023-02-01T12:53:54;7.03;;;2.60;;
18425;SDS011;9340;48.756;9.226;2023-02-01T12:56:26;5.90;;;2.53;;
18425;SDS011;9340;48.756;9.226;2023-02-01T12:58:59;6.10;;;2.37;;
18425;SDS011;9340;48.756;9.226;2023-02-01T13:01:34;7.13;;;3.30;;
18425;SDS011;9340;48.756;9.226;2023-02-01T13:04:05;8.80;;;3.00;;
18425;SDS011;9340;48.756;9.226;2023-02-01T13:06:38;9.70;;;2.83;;
18425;SDS011;9340;48.756;9.226;2023-02-01T13:09:09;6.67;;;2.37;;
18425;SDS011;9340;48.756;9.226;2023-02-01T13:11:45;7.40;;;2.90;;
18425;SDS011;9340;48.756;9.226;2023-02-01T13:14:17;3.67;;;2.43;;
18425;SDS011;9340;48.756;9.226;2023-02-01T13:16:53;5.73;;;2.50;;
18425;SDS011;9340;48.756;9.226;2023-02-01T13:19:26;5.80;;;2.40;;
18425;SDS011;9340;48.756;9.226;2023-02-01T13:21:56;7.93;;;2.93;;
18425;SDS011;9340;48.756;9.226;2023-02-01T13:24:30;6.40;;;2.40;;
18425;SDS011;9340;48.756;9.226;2023-02-01T13:27:00;6.27;;;2.30;;
18425;SDS011;9340;48.756;9.226;2023-02-01T13:29:27;4.33;;;2.63;;
18425;SDS011;9340;48.756;9.226;2023-02-01T13:34:59;6.23;;;2.67;;
18425;SDS011;9340;48.756;9.226;2023-02-01T13:37:51;5.50;;;2.23;;
18425;SDS011;9340;48.756;9.226;2023-02-01T13:40:33;10.07;;;3.60;;
18425;SDS011;9340;48.756;9.226;2023-02-01T13:43:05;7.27;;;3.00;;
18425;SDS011;9340;48.756;9.226;2023-02-01T13:45:41;6.83;;;2.63;;
18425;SDS011;9340;48.756;9.226;2023-02-01T13:48:17;6.70;;;2.53;;
18425;SDS011;9340;48.756;9.226;2023-02-01T13:50:50;6.50;;;2.57;;
18425;SDS011;9340;48.756;9.226;2023-02-01T13:53:21;5.33;;;2.40;;
18425;SDS011;9340;48.756;9.226;2023-02-01T13:55:55;5.97;;;2.77;;
18425;SDS011;9340;48.756;9.226;2023-02-01T13:58:34;6.47;;;2.30;;
18425;SDS011;9340;48.756;9.226;2023-02-01T14:04:03;9.57;;;2.57;;
18425;SDS011;9340;48.756;9.226;2023-02-01T14:06:44;13.17;;;5.50;;
18425;SDS011;9340;48.756;9.226;2023-02-01T14:09:16;8.50;;;3.57;;
18425;SDS011;9340;48.756;9.226;2023-02-01T14:12:04;8.17;;;2.93;;
18425;SDS011;9340;48.756;9.226;2023-02-01T14:15:24;7.97;;;3.30;;
18425;SDS011;9340;48.756;9.226;2023-02-01T14:17:52;6.30;;;2.33;;
18425;SDS011;9340;48.756;9.226;2023-02-01T14:23:17;6.17;;;2.60;;
18425;SDS011;9340;48.756;9.226;2023-02-01T14:26:02;6.43;;;2.80;;
18425;SDS011;9340;48.756;9.226;2023-02-01T14:28:43;4.80;;;2.27;;
18425;SDS011;9340;48.756;9.226;2023-02-01T14:34:21;8.17;;;2.90;;
18425;SDS011;9340;48.756;9.226;2023-02-01T14:36:56;6.50;;;3.80;;
18425;SDS011;9340;48.756;9.226;2023-02-01T14:39:26;6.97;;;3.33;;
18425;SDS011;9340;48.756;9.226;2023-02-01T14:41:57;9.37;;;3.40;;
18425;SDS011;9340;48.756;9.226;2023-02-01T14:44:29;4.93;;;3.33;;
18425;SDS011;9340;48.756;9.226;2023-02-01T14:50:02;6.87;;;2.47;;
18425;SDS011;9340;48.756;9.226;2023-02-01T14:52:45;7.43;;;3.20;;
18425;SDS011;9340;48.756;9.226;2023-02-01T14:55:16;6.20;;;2.33;;
18425;SDS011;9340;48.756;9.226;2023-02-01T14:57:46;6.27;;;2.87;;
18425;SDS011;9340;48.756;9.226;2023-02-01T15:00:23;8.77;;;3.00;;
18425;SDS011;9340;48.756;9.226;2023-02-01T15:02:53;8.77;;;3.20;;
18425;SDS011;9340;48.756;9.226;2023-02-01T15:05:28;7.40;;;3.40;;
18425;SDS011;9340;48.756;9.226;2023-02-01T15:07:58;8.77;;;3.10;;
18425;SDS011;9340;48.756;9.226;2023-02-01T15:10:31;8.87;;;3.40;;
18425;SDS011;9340;48.756;9.226;2023-02-01T15:13:07;9.07;;;3.47;;
18425;SDS011;9340;48.756;9.226;2023-02-01T15:15:59;9.30;;;2.80;;
18425;SDS011;9340;48.756;9.226;2023-02-01T15:18:28;7.53;;;3.00;;
18425;SDS011;9340;48.756;9.226;2023-02-01T15:20:56;9.60;;;2.67;;
18425;SDS011;9340;48.756;9.226;2023-02-01T15:23:23;6.70;;;2.80;;
18425;SDS011;9340;48.756;9.226;2023-02-01T15:25:50;7.83;;;2.87;;
18425;SDS011;9340;48.756;9.226;2023-02-01T15:28:17;9.57;;;2.67;;
18425;SDS011;9340;48.756;9.226;2023-02-01T15:30:51;5.13;;;2.60;;
18425;SDS011;9340;48.756;9.226;2023-02-01T15:33:20;4.87;;;2.73;;
18425;SDS011;9340;48.756;9.226;2023-02-01T15:35:49;8.57;;;3.27;;
18425;SDS011;9340;48.756;9.226;2023-02-01T15:38:24;9.60;;;3.17;;
18425;SDS011;9340;48.756;9.226;2023-02-01T15:41:04;7.80;;;3.23;;
18425;SDS011;9340;48.756;9.226;2023-02-01T15:43:34;8.00;;;3.20;;
18425;SDS011;9340;48.756;9.226;2023-02-01T15:46:06;9.93;;;3.30;;
18425;SDS011;9340;48.756;9.226;2023-02-01T15:48:36;3.53;;;2.33;;
18425;SDS011;9340;48.756;9.226;2023-02-01T15:51:15;6.67;;;2.80;;
18425;SDS011;9340;48.756;9.226;2023-02-01T15:53:45;6.73;;;2.67;;
18425;SDS011;9340;48.756;9.226;2023-02-01T15:56:14;5.63;;;2.33;;
18425;SDS011;9340;48.756;9.226;2023-02-01T15:58:44;10.30;;;2.57;;